createdAt,value
2023-03-23T00:03:41.372Z,501.00
2023-03-23T00:07:41.446Z,511.00
2023-03-23T00:11:41.648Z,503.00
2023-03-23T00:15:41.852Z,507.00
2023-03-23T00:19:41.585Z,514.00
2023-03-23T00:23:41.543Z,505.00
2023-03-23T00:27:41.540Z,511.00
2023-03-23T00:31:41.487Z,514.00
2023-03-23T00:35:41.739Z,507.00
2023-03-23T00:39:41.405Z,512.00
2023-03-23T00:43:41.369Z,506.00
2023-03-23T00:47:41.311Z,502.00
2023-03-23T00:51:41.425Z,500.00
2023-03-23T00:55:41.725Z,507.00
2023-03-23T00:59:41.785Z,507.00
2023-03-23T01:03:41.873Z,506.00
2023-03-23T01:07:42.032Z,517.00
2023-03-23T01:11:42.168Z,507.00
2023-03-23T01:15:42.623Z,507.00
2023-03-23T01:19:42.463Z,510.00
2023-03-23T01:23:42.635Z,511.00
2023-03-23T01:27:42.772Z,507.00
2023-03-23T01:31:42.866Z,500.00
2023-03-23T01:35:43.145Z,501.00
2023-03-23T01:39:42.929Z,506.00
2023-03-23T01:43:42.972Z,509.00
2023-03-23T01:47:42.974Z,518.00
2023-03-23T01:51:42.969Z,517.00
2023-03-23T01:55:43.163Z,508.00
2023-03-23T01:59:43.025Z,512.00
2023-03-23T02:03:43.021Z,508.00
2023-03-23T02:07:43.125Z,504.00
2023-03-23T02:11:42.996Z,510.00
2023-03-23T02:15:43.225Z,512.00
2023-03-23T02:19:42.961Z,509.00
2023-03-23T02:23:42.961Z,516.00
2023-03-23T02:27:42.950Z,506.00
2023-03-23T02:31:42.972Z,515.00
2023-03-23T02:35:43.445Z,512.00
2023-03-23T02:39:42.910Z,505.00
2023-03-23T02:43:42.888Z,505.00
2023-03-23T02:47:42.873Z,502.00
2023-03-23T02:51:42.863Z,516.00
2023-03-23T02:55:43.286Z,517.00
2023-03-23T02:59:42.796Z,515.00
2023-03-23T03:03:42.810Z,516.00
2023-03-23T03:07:42.797Z,510.00
2023-03-23T03:11:42.787Z,509.00
2023-03-23T03:15:42.905Z,509.00
2023-03-23T03:19:42.797Z,517.00
2023-03-23T03:23:42.794Z,503.00
2023-03-23T03:27:42.797Z,510.00
2023-03-23T03:31:42.787Z,505.00
2023-03-23T03:35:43.058Z,516.00
2023-03-23T03:39:42.740Z,506.00
2023-03-23T03:43:42.728Z,511.00
2023-03-23T03:47:42.762Z,502.00
2023-03-23T03:51:42.727Z,508.00
2023-03-23T03:55:42.932Z,509.00
2023-03-23T03:59:42.712Z,507.00
2023-03-23T04:03:42.941Z,504.00
2023-03-23T04:07:42.685Z,506.00
2023-03-23T04:11:42.675Z,507.00
2023-03-23T04:15:43.097Z,515.00
2023-03-23T04:19:43.745Z,504.00
2023-03-23T04:23:42.634Z,510.00
2023-03-23T04:27:42.581Z,512.00
2023-03-23T04:31:42.532Z,513.00
2023-03-23T04:35:42.799Z,506.00
2023-03-23T04:39:42.508Z,507.00
2023-03-23T04:43:42.447Z,509.00
2023-03-23T04:47:42.434Z,505.00
2023-03-23T04:51:42.404Z,506.00
2023-03-23T04:55:42.540Z,505.00
2023-03-23T04:59:42.287Z,510.00
2023-03-23T05:03:42.294Z,507.00
2023-03-23T05:07:42.231Z,506.00
2023-03-23T05:11:42.183Z,506.00
2023-03-23T05:15:42.380Z,515.00
2023-03-23T05:19:42.088Z,519.00
2023-03-23T05:23:42.073Z,516.00
2023-03-23T05:27:42.031Z,512.00
2023-03-23T05:31:42.011Z,513.00
2023-03-23T05:35:42.403Z,516.00
2023-03-23T05:39:41.916Z,516.00
2023-03-23T05:43:41.858Z,512.00
2023-03-23T05:47:41.903Z,513.00
2023-03-23T05:51:41.809Z,517.00
2023-03-23T05:55:41.835Z,518.00
2023-03-23T05:59:42.948Z,522.00
2023-03-23T06:03:41.696Z,521.00
2023-03-23T06:07:41.626Z,514.00
2023-03-23T06:11:41.626Z,520.00
2023-03-23T06:15:41.805Z,523.00
2023-03-23T06:19:41.542Z,518.00
2023-03-23T06:23:41.543Z,524.00
2023-03-23T06:27:41.556Z,527.00
2023-03-23T06:31:42.055Z,531.00
2023-03-23T06:35:41.709Z,533.00
2023-03-23T06:39:41.534Z,549.00
2023-03-23T06:43:41.327Z,563.00
2023-03-23T06:47:41.559Z,593.00
2023-03-23T06:51:41.410Z,633.00
2023-03-23T06:55:44.543Z,681.00
2023-03-23T06:59:41.556Z,777.00
2023-03-23T07:03:41.564Z,957.00
2023-03-23T07:07:41.255Z,1022.00
2023-03-23T07:11:41.289Z,1061.00
2023-03-23T07:15:41.664Z,1123.00
2023-03-23T07:19:41.157Z,1198.00
2023-03-23T07:23:41.078Z,1207.00
2023-03-23T07:27:41.059Z,1309.00
2023-03-23T07:31:41.010Z,1319.00
2023-03-23T07:35:41.178Z,1379.00
2023-03-23T07:39:40.939Z,1485.00
2023-03-23T07:43:41.069Z,1518.00
2023-03-23T07:47:41.066Z,1479.00
2023-03-23T07:51:41.056Z,1160.00
2023-03-23T07:55:40.937Z,954.00
2023-03-23T07:59:40.786Z,1040.00
2023-03-23T08:03:41.048Z,1010.00
2023-03-23T08:07:41.131Z,1083.00
2023-03-23T08:11:40.801Z,1180.00
2023-03-23T08:15:41.065Z,1211.00
2023-03-23T08:19:41.099Z,1281.00
2023-03-23T08:23:40.868Z,1336.00
2023-03-23T08:27:41.010Z,1424.00
2023-03-23T08:31:41.094Z,1491.00
2023-03-23T08:35:41.134Z,1540.00
2023-03-23T08:39:41.164Z,1592.00
2023-03-23T08:43:40.816Z,1592.00
2023-03-23T08:47:41.080Z,1564.00
2023-03-23T08:51:41.091Z,1547.00
2023-03-23T08:55:41.287Z,1481.00
2023-03-23T08:59:40.696Z,1424.00
2023-03-23T09:03:41.108Z,1413.00
2023-03-23T09:07:41.140Z,1382.00
2023-03-23T09:11:40.580Z,1423.00
2023-03-23T09:15:46.518Z,1357.00
2023-03-23T09:19:41.594Z,1306.00
2023-03-23T09:23:40.607Z,1282.00
2023-03-23T09:27:40.494Z,1278.00
2023-03-23T09:31:40.405Z,1265.00
2023-03-23T09:35:40.588Z,1255.00
2023-03-23T09:39:40.583Z,1236.00
2023-03-23T09:43:40.674Z,1279.00
2023-03-23T09:47:40.613Z,1323.00
2023-03-23T09:51:40.525Z,1365.00
2023-03-23T09:55:40.800Z,1051.00
2023-03-23T09:59:40.682Z,1165.00
2023-03-23T10:03:41.118Z,1130.00
2023-03-23T10:07:40.812Z,1153.00
2023-03-23T10:11:40.829Z,1193.00
2023-03-23T10:15:40.975Z,1223.00
2023-03-23T10:19:40.789Z,1291.00
2023-03-23T10:23:41.119Z,1317.00
2023-03-23T10:27:40.746Z,1387.00
2023-03-23T10:31:40.680Z,1425.00
2023-03-23T10:35:41.028Z,1486.00
2023-03-23T10:39:40.615Z,1523.00
2023-03-23T10:43:40.636Z,1484.00
2023-03-23T10:47:40.537Z,1445.00
2023-03-23T10:51:40.675Z,1384.00
2023-03-23T10:55:40.858Z,1394.00
2023-03-23T10:59:40.500Z,1377.00
2023-03-23T11:03:41.173Z,1345.00
2023-03-23T11:07:40.874Z,1326.00
2023-03-23T11:11:41.109Z,1328.00
2023-03-23T11:15:41.822Z,1302.00
2023-03-23T11:19:41.538Z,1262.00
2023-03-23T11:23:41.765Z,1262.00
2023-03-23T11:27:41.969Z,1238.00
2023-03-23T11:31:42.667Z,1233.00
2023-03-23T11:35:42.622Z,1211.00
2023-03-23T11:39:42.555Z,1169.00
2023-03-23T11:43:42.660Z,1131.00
2023-03-23T11:47:42.477Z,1082.00
2023-03-23T11:51:42.674Z,1060.00
2023-03-23T11:55:42.531Z,998.00
2023-03-23T11:59:42.379Z,969.00
2023-03-23T12:03:42.345Z,918.00
2023-03-23T12:07:42.298Z,884.00
2023-03-23T12:11:42.254Z,847.00
2023-03-23T12:15:42.367Z,825.00
2023-03-23T12:19:42.188Z,759.00
2023-03-23T12:23:42.235Z,708.00
2023-03-23T12:27:42.232Z,707.00
2023-03-23T12:31:42.111Z,613.00
2023-03-23T12:35:42.274Z,647.00
2023-03-23T12:39:42.218Z,641.00
2023-03-23T12:43:42.002Z,611.00
2023-03-23T12:47:41.906Z,608.00
2023-03-23T12:51:41.881Z,609.00
2023-03-23T12:55:42.292Z,589.00
2023-03-23T12:59:41.806Z,597.00
2023-03-23T13:03:41.793Z,594.00
2023-03-23T13:07:49.216Z,571.00
2023-03-23T13:11:41.742Z,574.00
2023-03-23T13:15:41.749Z,556.00
2023-03-23T13:19:41.675Z,550.00
2023-03-23T13:23:41.658Z,541.00
2023-03-23T13:27:41.746Z,538.00
2023-03-23T13:31:48.762Z,514.00
2023-03-23T13:35:41.518Z,521.00
2023-03-23T13:39:41.461Z,505.00
2023-03-23T13:43:41.446Z,507.00
2023-03-23T13:47:41.377Z,514.00
2023-03-23T13:51:41.381Z,500.00
2023-03-23T13:55:41.398Z,501.00
2023-03-23T13:59:41.299Z,508.00
2023-03-23T14:03:41.239Z,514.00
2023-03-23T14:07:41.213Z,520.00
2023-03-23T14:11:41.164Z,513.00
2023-03-23T14:15:41.402Z,511.00
2023-03-23T14:19:41.272Z,517.00
2023-03-23T14:23:41.063Z,521.00
2023-03-23T14:27:40.999Z,443.00
2023-03-23T14:31:40.935Z,627.00
2023-03-23T14:35:40.910Z,675.00
2023-03-23T14:39:40.926Z,689.00
2023-03-23T14:43:40.996Z,860.00
2023-03-23T14:47:41.036Z,985.00
2023-03-23T14:51:41.106Z,1003.00
2023-03-23T14:55:41.246Z,1003.00
2023-03-23T14:59:41.311Z,1051.00
2023-03-23T15:03:50.149Z,1048.00
2023-03-23T15:07:41.272Z,1072.00
2023-03-23T15:11:41.308Z,1087.00
2023-03-23T15:15:41.399Z,1116.00
2023-03-23T15:19:41.144Z,1084.00
2023-03-23T15:23:41.098Z,1066.00
2023-03-23T15:27:41.047Z,1059.00
2023-03-23T15:31:41.042Z,1042.00
2023-03-23T15:35:41.035Z,1018.00
2023-03-23T15:39:40.934Z,1032.00
2023-03-23T15:43:40.921Z,1047.00
2023-03-23T15:47:41.065Z,1050.00
2023-03-23T15:51:40.864Z,1044.00
2023-03-23T15:55:40.821Z,1004.00
2023-03-23T15:59:40.749Z,1000.00
2023-03-23T16:03:40.737Z,987.00
2023-03-23T16:07:40.889Z,995.00
2023-03-23T16:11:40.688Z,997.00
2023-03-23T16:15:40.623Z,951.00
2023-03-23T16:19:40.584Z,1003.00
2023-03-23T16:23:40.569Z,947.00
2023-03-23T16:27:40.516Z,957.00
2023-03-23T16:31:40.474Z,983.00
2023-03-23T16:35:40.541Z,979.00
2023-03-23T16:39:40.396Z,943.00
2023-03-23T16:43:40.411Z,961.00
2023-03-23T16:47:40.551Z,945.00
2023-03-23T16:51:41.748Z,933.00
2023-03-23T16:55:40.778Z,935.00
2023-03-23T16:59:40.775Z,947.00
2023-03-23T17:03:43.344Z,944.00
2023-03-23T17:07:40.887Z,944.00
2023-03-23T17:11:40.777Z,915.00
2023-03-23T17:15:40.721Z,894.00
2023-03-23T17:19:40.682Z,896.00
2023-03-23T17:23:40.642Z,907.00
2023-03-23T17:27:40.705Z,913.00
2023-03-23T17:31:40.620Z,896.00
2023-03-23T17:35:40.522Z,929.00
2023-03-23T17:39:42.586Z,887.00
2023-03-23T17:43:40.500Z,899.00
2023-03-23T17:47:40.435Z,892.00
2023-03-23T17:51:40.353Z,847.00
2023-03-23T17:55:40.343Z,865.00
2023-03-23T17:59:40.267Z,861.00
2023-03-23T18:03:40.331Z,870.00
2023-03-23T18:07:40.219Z,844.00
2023-03-23T18:11:40.177Z,855.00
2023-03-23T18:15:40.133Z,851.00
2023-03-23T18:19:40.108Z,833.00
2023-03-23T18:23:49.018Z,816.00
2023-03-23T18:27:41.027Z,837.00
2023-03-23T18:31:40.281Z,813.00
2023-03-23T18:35:39.957Z,810.00
2023-03-23T18:39:39.934Z,814.00
2023-03-23T18:43:39.954Z,793.00
2023-03-23T18:47:40.058Z,793.00
2023-03-23T18:51:40.119Z,797.00
2023-03-23T18:55:40.182Z,787.00
2023-03-23T18:59:40.268Z,759.00
2023-03-23T19:03:40.474Z,784.00
2023-03-23T19:07:40.466Z,748.00
2023-03-23T19:11:40.551Z,752.00
2023-03-23T19:15:40.642Z,714.00
2023-03-23T19:19:40.705Z,741.00
2023-03-23T19:23:40.815Z,732.00
2023-03-23T19:28:18.204Z,732.00
2023-03-23T19:31:43.277Z,746.00
2023-03-23T19:35:40.848Z,743.00
2023-03-23T19:39:41.865Z,728.00
2023-03-23T19:43:40.751Z,724.00
2023-03-23T19:47:40.717Z,699.00
2023-03-23T19:51:40.768Z,743.00
2023-03-23T19:55:40.842Z,716.00
2023-03-23T19:59:40.941Z,703.00
2023-03-23T20:03:41.040Z,713.00
2023-03-23T20:07:44.508Z,704.00
2023-03-23T20:11:42.192Z,695.00
2023-03-23T20:15:41.072Z,684.00
2023-03-23T20:19:41.515Z,664.00
2023-03-23T20:23:40.963Z,671.00
2023-03-23T20:27:41.121Z,666.00
2023-03-23T20:31:41.157Z,658.00
2023-03-23T20:35:41.302Z,659.00
2023-03-23T20:39:41.377Z,660.00
2023-03-23T20:43:41.469Z,651.00
2023-03-23T20:47:41.690Z,646.00
2023-03-23T20:51:41.720Z,649.00
2023-03-23T20:55:41.824Z,644.00
2023-03-23T20:59:41.912Z,640.00
2023-03-23T21:03:41.994Z,633.00
2023-03-23T21:07:42.130Z,640.00
2023-03-23T21:11:42.262Z,634.00
2023-03-23T21:15:42.507Z,637.00
2023-03-23T21:19:42.451Z,626.00
2023-03-23T21:23:42.560Z,631.00
2023-03-23T21:27:42.734Z,634.00
2023-03-23T21:31:42.838Z,636.00
2023-03-23T21:35:42.986Z,633.00
2023-03-23T21:39:43.114Z,636.00
2023-03-23T21:43:43.290Z,632.00
2023-03-23T21:47:43.403Z,629.00
2023-03-23T21:51:43.532Z,634.00
2023-03-23T21:55:43.643Z,634.00
2023-03-23T21:59:43.797Z,636.00
2023-03-23T22:03:43.939Z,636.00
2023-03-23T22:07:44.107Z,636.00
2023-03-23T22:11:44.262Z,629.00
2023-03-23T22:15:44.457Z,632.00
2023-03-23T22:19:44.573Z,634.00
2023-03-23T22:23:44.721Z,633.00
2023-03-23T22:27:44.881Z,637.00
2023-03-23T22:31:45.135Z,631.00
2023-03-23T22:35:47.393Z,635.00
2023-03-23T22:39:45.141Z,635.00
2023-03-23T22:43:45.074Z,632.00
2023-03-23T22:47:45.046Z,630.00
2023-03-23T22:51:45.008Z,631.00
2023-03-23T22:55:44.946Z,632.00
2023-03-23T22:59:44.922Z,632.00
2023-03-23T23:03:44.944Z,628.00
2023-03-23T23:07:44.827Z,622.00
2023-03-23T23:11:44.799Z,622.00
2023-03-23T23:15:44.769Z,624.00
2023-03-23T23:19:44.753Z,607.00
2023-03-23T23:23:44.705Z,620.00
2023-03-23T23:27:44.645Z,618.00
2023-03-23T23:31:44.844Z,614.00
2023-03-23T23:35:45.092Z,618.00
2023-03-23T23:39:45.259Z,619.00
2023-03-23T23:43:45.455Z,616.00
2023-03-23T23:47:45.737Z,614.00
2023-03-23T23:51:45.832Z,612.00
2023-03-23T23:55:46.022Z,613.00
2023-03-23T23:59:46.175Z,607.00
